sensor_id;sensor_type;location;lat;lon;timestamp;temperature;humidity
27848;DHT22;15212;48.830;8.730;2022-08-07T00:00:17;15.00;88.30
27848;DHT22;15212;48.830;8.730;2022-08-07T00:02:46;15.10;87.60
27848;DHT22;15212;48.830;8.730;2022-08-07T00:05:14;15.10;86.80
27848;DHT22;15212;48.830;8.730;2022-08-07T00:07:42;15.20;86.60
27848;DHT22;15212;48.830;8.730;2022-08-07T00:10:11;15.30;86.20
27848;DHT22;15212;48.830;8.730;2022-08-07T00:12:39;15.40;86.20
27848;DHT22;15212;48.830;8.730;2022-08-07T00:15:09;15.50;84.50
27848;DHT22;15212;48.830;8.730;2022-08-07T00:17:38;15.60;84.10
27848;DHT22;15212;48.830;8.730;2022-08-07T00:20:07;15.70;84.30
27848;DHT22;15212;48.830;8.730;2022-08-07T00:22:35;15.80;83.90
27848;DHT22;15212;48.830;8.730;2022-08-07T00:25:06;15.80;84.20
27848;DHT22;15212;48.830;8.730;2022-08-07T00:27:35;15.90;83.70
27848;DHT22;15212;48.830;8.730;2022-08-07T00:30:04;15.90;84.30
27848;DHT22;15212;48.830;8.730;2022-08-07T00:32:33;16.00;83.60
27848;DHT22;15212;48.830;8.730;2022-08-07T00:35:01;16.00;83.30
27848;DHT22;15212;48.830;8.730;2022-08-07T00:37:30;16.00;83.50
27848;DHT22;15212;48.830;8.730;2022-08-07T00:39:58;16.00;83.20
27848;DHT22;15212;48.830;8.730;2022-08-07T00:42:26;16.00;84.00
27848;DHT22;15212;48.830;8.730;2022-08-07T00:44:55;16.00;83.60
27848;DHT22;15212;48.830;8.730;2022-08-07T00:47:23;16.00;84.00
27848;DHT22;15212;48.830;8.730;2022-08-07T00:49:52;15.90;84.00
27848;DHT22;15212;48.830;8.730;2022-08-07T00:52:20;15.90;84.30
27848;DHT22;15212;48.830;8.730;2022-08-07T00:54:49;15.80;84.70
27848;DHT22;15212;48.830;8.730;2022-08-07T00:57:18;15.80;84.50
27848;DHT22;15212;48.830;8.730;2022-08-07T00:59:47;15.80;84.80
27848;DHT22;15212;48.830;8.730;2022-08-07T01:02:16;15.80;84.40
27848;DHT22;15212;48.830;8.730;2022-08-07T01:04:45;15.80;84.90
27848;DHT22;15212;48.830;8.730;2022-08-07T01:07:13;15.80;85.00
27848;DHT22;15212;48.830;8.730;2022-08-07T01:09:42;15.70;85.30
27848;DHT22;15212;48.830;8.730;2022-08-07T01:12:10;15.60;86.30
27848;DHT22;15212;48.830;8.730;2022-08-07T01:14:41;15.50;85.70
27848;DHT22;15212;48.830;8.730;2022-08-07T01:17:10;15.40;86.20
27848;DHT22;15212;48.830;8.730;2022-08-07T01:19:39;15.30;86.80
27848;DHT22;15212;48.830;8.730;2022-08-07T01:22:08;15.30;87.70
27848;DHT22;15212;48.830;8.730;2022-08-07T01:24:37;15.20;87.00
27848;DHT22;15212;48.830;8.730;2022-08-07T01:27:05;15.20;87.40
27848;DHT22;15212;48.830;8.730;2022-08-07T01:29:34;15.10;88.10
27848;DHT22;15212;48.830;8.730;2022-08-07T01:32:02;15.00;88.60
27848;DHT22;15212;48.830;8.730;2022-08-07T01:34:32;14.90;88.70
27848;DHT22;15212;48.830;8.730;2022-08-07T01:37:01;14.90;88.80
27848;DHT22;15212;48.830;8.730;2022-08-07T01:39:29;14.90;89.30
27848;DHT22;15212;48.830;8.730;2022-08-07T01:41:58;14.80;89.30
27848;DHT22;15212;48.830;8.730;2022-08-07T01:44:26;14.80;89.50
27848;DHT22;15212;48.830;8.730;2022-08-07T01:46:54;14.90;89.30
27848;DHT22;15212;48.830;8.730;2022-08-07T01:49:23;14.90;89.10
27848;DHT22;15212;48.830;8.730;2022-08-07T01:51:51;14.90;89.10
27848;DHT22;15212;48.830;8.730;2022-08-07T01:54:22;15.00;88.90
27848;DHT22;15212;48.830;8.730;2022-08-07T01:56:54;15.00;89.10
27848;DHT22;15212;48.830;8.730;2022-08-07T01:59:31;15.00;89.30
27848;DHT22;15212;48.830;8.730;2022-08-07T02:02:07;15.00;89.30
27848;DHT22;15212;48.830;8.730;2022-08-07T02:04:43;15.00;89.70
27848;DHT22;15212;48.830;8.730;2022-08-07T02:07:15;15.00;89.80
27848;DHT22;15212;48.830;8.730;2022-08-07T02:09:46;14.90;89.90
27848;DHT22;15212;48.830;8.730;2022-08-07T02:12:16;14.90;90.00
27848;DHT22;15212;48.830;8.730;2022-08-07T02:14:52;14.90;90.20
27848;DHT22;15212;48.830;8.730;2022-08-07T02:17:21;14.90;90.10
27848;DHT22;15212;48.830;8.730;2022-08-07T02:19:51;14.90;90.10
27848;DHT22;15212;48.830;8.730;2022-08-07T02:22:21;14.80;90.40
27848;DHT22;15212;48.830;8.730;2022-08-07T02:24:52;14.80;90.40
27848;DHT22;15212;48.830;8.730;2022-08-07T02:27:23;14.80;90.50
27848;DHT22;15212;48.830;8.730;2022-08-07T02:29:54;14.80;90.70
27848;DHT22;15212;48.830;8.730;2022-08-07T02:32:24;14.80;90.70
27848;DHT22;15212;48.830;8.730;2022-08-07T02:34:55;14.80;90.90
27848;DHT22;15212;48.830;8.730;2022-08-07T02:37:25;14.80;90.90
27848;DHT22;15212;48.830;8.730;2022-08-07T02:39:56;14.80;91.10
27848;DHT22;15212;48.830;8.730;2022-08-07T02:42:25;14.80;91.20
27848;DHT22;15212;48.830;8.730;2022-08-07T02:44:56;14.70;91.20
27848;DHT22;15212;48.830;8.730;2022-08-07T02:47:25;14.70;91.40
27848;DHT22;15212;48.830;8.730;2022-08-07T02:49:54;14.70;91.20
27848;DHT22;15212;48.830;8.730;2022-08-07T02:52:36;14.60;91.40
27848;DHT22;15212;48.830;8.730;2022-08-07T02:55:05;14.60;91.50
27848;DHT22;15212;48.830;8.730;2022-08-07T02:57:35;14.50;91.60
27848;DHT22;15212;48.830;8.730;2022-08-07T03:00:05;14.50;91.60
27848;DHT22;15212;48.830;8.730;2022-08-07T03:02:34;14.40;91.70
27848;DHT22;15212;48.830;8.730;2022-08-07T03:05:04;14.40;91.90
27848;DHT22;15212;48.830;8.730;2022-08-07T03:07:34;14.40;92.10
27848;DHT22;15212;48.830;8.730;2022-08-07T03:10:04;14.30;92.10
27848;DHT22;15212;48.830;8.730;2022-08-07T03:12:33;14.30;92.10
27848;DHT22;15212;48.830;8.730;2022-08-07T03:15:05;14.30;92.30
27848;DHT22;15212;48.830;8.730;2022-08-07T03:17:35;14.30;92.50
27848;DHT22;15212;48.830;8.730;2022-08-07T03:20:04;14.30;92.50
27848;DHT22;15212;48.830;8.730;2022-08-07T03:22:35;14.20;92.60
27848;DHT22;15212;48.830;8.730;2022-08-07T03:25:04;14.20;92.80
27848;DHT22;15212;48.830;8.730;2022-08-07T03:27:33;14.10;92.90
27848;DHT22;15212;48.830;8.730;2022-08-07T03:30:02;14.10;93.00
27848;DHT22;15212;48.830;8.730;2022-08-07T03:32:33;14.00;93.10
27848;DHT22;15212;48.830;8.730;2022-08-07T03:35:06;13.90;93.50
27848;DHT22;15212;48.830;8.730;2022-08-07T03:37:37;13.80;93.70
27848;DHT22;15212;48.830;8.730;2022-08-07T03:40:06;13.70;94.00
27848;DHT22;15212;48.830;8.730;2022-08-07T03:42:36;13.70;94.30
27848;DHT22;15212;48.830;8.730;2022-08-07T03:45:05;13.70;94.50
27848;DHT22;15212;48.830;8.730;2022-08-07T03:47:35;13.70;94.40
27848;DHT22;15212;48.830;8.730;2022-08-07T03:50:04;13.70;94.30
27848;DHT22;15212;48.830;8.730;2022-08-07T03:52:33;13.70;94.50
27848;DHT22;15212;48.830;8.730;2022-08-07T03:55:03;13.60;94.70
27848;DHT22;15212;48.830;8.730;2022-08-07T03:57:33;13.50;94.80
27848;DHT22;15212;48.830;8.730;2022-08-07T04:00:03;13.50;95.00
27848;DHT22;15212;48.830;8.730;2022-08-07T04:02:32;13.40;95.20
27848;DHT22;15212;48.830;8.730;2022-08-07T04:05:01;13.40;95.60
27848;DHT22;15212;48.830;8.730;2022-08-07T04:07:31;13.30;95.70
27848;DHT22;15212;48.830;8.730;2022-08-07T04:10:01;13.20;96.00
27848;DHT22;15212;48.830;8.730;2022-08-07T04:12:30;13.10;96.30
27848;DHT22;15212;48.830;8.730;2022-08-07T04:14:59;13.10;96.70
27848;DHT22;15212;48.830;8.730;2022-08-07T04:17:28;13.00;96.80
27848;DHT22;15212;48.830;8.730;2022-08-07T04:19:56;13.00;97.30
27848;DHT22;15212;48.830;8.730;2022-08-07T04:22:25;13.00;97.50
27848;DHT22;15212;48.830;8.730;2022-08-07T04:24:54;13.10;97.60
27848;DHT22;15212;48.830;8.730;2022-08-07T04:27:24;13.10;97.60
27848;DHT22;15212;48.830;8.730;2022-08-07T04:29:53;13.20;97.60
27848;DHT22;15212;48.830;8.730;2022-08-07T04:32:23;13.20;97.70
27848;DHT22;15212;48.830;8.730;2022-08-07T04:34:52;13.30;97.80
27848;DHT22;15212;48.830;8.730;2022-08-07T04:37:21;13.30;97.80
27848;DHT22;15212;48.830;8.730;2022-08-07T04:39:50;13.30;97.90
27848;DHT22;15212;48.830;8.730;2022-08-07T04:42:18;13.30;98.00
27848;DHT22;15212;48.830;8.730;2022-08-07T04:44:47;13.30;98.20
27848;DHT22;15212;48.830;8.730;2022-08-07T04:47:37;13.40;98.30
27848;DHT22;15212;48.830;8.730;2022-08-07T04:50:37;13.40;98.30
27848;DHT22;15212;48.830;8.730;2022-08-07T04:53:20;13.40;98.30
27848;DHT22;15212;48.830;8.730;2022-08-07T04:56:10;13.50;98.30
27848;DHT22;15212;48.830;8.730;2022-08-07T04:58:51;13.60;98.40
27848;DHT22;15212;48.830;8.730;2022-08-07T05:01:45;13.70;98.40
27848;DHT22;15212;48.830;8.730;2022-08-07T05:04:27;13.70;98.40
27848;DHT22;15212;48.830;8.730;2022-08-07T05:07:14;13.80;98.50
27848;DHT22;15212;48.830;8.730;2022-08-07T05:10:03;13.90;98.50
27848;DHT22;15212;48.830;8.730;2022-08-07T05:15:30;14.10;98.90
27848;DHT22;15212;48.830;8.730;2022-08-07T05:18:21;14.30;99.00
27848;DHT22;15212;48.830;8.730;2022-08-07T05:20:53;14.50;98.90
27848;DHT22;15212;48.830;8.730;2022-08-07T05:23:32;14.80;98.60
27848;DHT22;15212;48.830;8.730;2022-08-07T05:26:15;15.00;98.10
27848;DHT22;15212;48.830;8.730;2022-08-07T05:28:41;15.20;98.10
27848;DHT22;15212;48.830;8.730;2022-08-07T05:31:12;15.40;97.40
27848;DHT22;15212;48.830;8.730;2022-08-07T05:33:44;15.60;97.40
27848;DHT22;15212;48.830;8.730;2022-08-07T05:36:16;15.70;97.60
27848;DHT22;15212;48.830;8.730;2022-08-07T05:38:46;15.80;97.10
27848;DHT22;15212;48.830;8.730;2022-08-07T05:41:17;16.00;97.20
27848;DHT22;15212;48.830;8.730;2022-08-07T05:43:48;16.00;97.40
27848;DHT22;15212;48.830;8.730;2022-08-07T05:46:19;16.10;97.70
27848;DHT22;15212;48.830;8.730;2022-08-07T05:48:50;16.10;97.80
27848;DHT22;15212;48.830;8.730;2022-08-07T05:51:20;16.20;98.00
27848;DHT22;15212;48.830;8.730;2022-08-07T05:53:48;16.30;98.30
27848;DHT22;15212;48.830;8.730;2022-08-07T05:56:18;16.30;98.60
27848;DHT22;15212;48.830;8.730;2022-08-07T05:58:48;16.50;99.10
27848;DHT22;15212;48.830;8.730;2022-08-07T06:01:19;16.60;99.50
27848;DHT22;15212;48.830;8.730;2022-08-07T06:03:53;16.70;99.70
27848;DHT22;15212;48.830;8.730;2022-08-07T06:06:22;16.90;99.80
27848;DHT22;15212;48.830;8.730;2022-08-07T06:08:53;17.10;99.40
27848;DHT22;15212;48.830;8.730;2022-08-07T06:11:22;17.40;99.20
27848;DHT22;15212;48.830;8.730;2022-08-07T06:13:50;17.80;98.60
27848;DHT22;15212;48.830;8.730;2022-08-07T06:16:21;18.30;97.50
27848;DHT22;15212;48.830;8.730;2022-08-07T06:18:50;18.80;97.00
27848;DHT22;15212;48.830;8.730;2022-08-07T06:21:21;19.40;96.20
27848;DHT22;15212;48.830;8.730;2022-08-07T06:23:49;19.90;95.60
27848;DHT22;15212;48.830;8.730;2022-08-07T06:26:18;20.40;94.90
27848;DHT22;15212;48.830;8.730;2022-08-07T06:28:55;21.20;93.80
27848;DHT22;15212;48.830;8.730;2022-08-07T06:31:25;22.20;92.80
27848;DHT22;15212;48.830;8.730;2022-08-07T06:33:54;23.30;91.30
27848;DHT22;15212;48.830;8.730;2022-08-07T06:36:23;24.20;90.30
27848;DHT22;15212;48.830;8.730;2022-08-07T06:38:53;25.10;88.10
27848;DHT22;15212;48.830;8.730;2022-08-07T06:41:42;25.80;87.20
27848;DHT22;15212;48.830;8.730;2022-08-07T06:44:22;26.10;85.60
27848;DHT22;15212;48.830;8.730;2022-08-07T06:46:51;26.50;84.90
27848;DHT22;15212;48.830;8.730;2022-08-07T06:49:19;26.70;84.10
27848;DHT22;15212;48.830;8.730;2022-08-07T06:51:48;27.00;83.20
27848;DHT22;15212;48.830;8.730;2022-08-07T06:54:18;27.50;83.00
27848;DHT22;15212;48.830;8.730;2022-08-07T06:56:47;27.90;82.10
27848;DHT22;15212;48.830;8.730;2022-08-07T06:59:25;27.90;80.80
27848;DHT22;15212;48.830;8.730;2022-08-07T07:01:49;27.60;82.40
27848;DHT22;15212;48.830;8.730;2022-08-07T07:04:18;27.40;82.80
27848;DHT22;15212;48.830;8.730;2022-08-07T07:06:47;27.50;83.20
27848;DHT22;15212;48.830;8.730;2022-08-07T07:09:29;27.60;83.20
27848;DHT22;15212;48.830;8.730;2022-08-07T07:12:45;27.50;83.00
27848;DHT22;15212;48.830;8.730;2022-08-07T07:14:52;27.10;83.20
27848;DHT22;15212;48.830;8.730;2022-08-07T07:20:07;26.30;85.10
27848;DHT22;15212;48.830;8.730;2022-08-07T07:22:37;26.00;85.00
27848;DHT22;15212;48.830;8.730;2022-08-07T07:25:07;25.80;85.30
27848;DHT22;15212;48.830;8.730;2022-08-07T07:27:40;25.20;86.10
27848;DHT22;15212;48.830;8.730;2022-08-07T07:30:13;24.50;88.70
27848;DHT22;15212;48.830;8.730;2022-08-07T07:32:43;23.90;89.50
27848;DHT22;15212;48.830;8.730;2022-08-07T07:35:13;23.40;90.30
27848;DHT22;15212;48.830;8.730;2022-08-07T07:37:42;23.00;90.90
27848;DHT22;15212;48.830;8.730;2022-08-07T07:40:15;22.60;91.20
27848;DHT22;15212;48.830;8.730;2022-08-07T07:42:45;22.30;91.80
27848;DHT22;15212;48.830;8.730;2022-08-07T07:45:15;22.20;92.20
27848;DHT22;15212;48.830;8.730;2022-08-07T07:47:46;22.10;92.40
27848;DHT22;15212;48.830;8.730;2022-08-07T07:50:20;22.00;92.40
27848;DHT22;15212;48.830;8.730;2022-08-07T07:52:50;22.00;92.50
27848;DHT22;15212;48.830;8.730;2022-08-07T07:55:20;22.00;92.70
27848;DHT22;15212;48.830;8.730;2022-08-07T07:57:50;22.00;92.40
27848;DHT22;15212;48.830;8.730;2022-08-07T08:00:19;22.00;92.70
27848;DHT22;15212;48.830;8.730;2022-08-07T08:02:48;21.90;92.60
27848;DHT22;15212;48.830;8.730;2022-08-07T08:05:18;21.90;93.00
27848;DHT22;15212;48.830;8.730;2022-08-07T08:07:47;22.00;92.80
27848;DHT22;15212;48.830;8.730;2022-08-07T08:10:18;22.10;92.70
27848;DHT22;15212;48.830;8.730;2022-08-07T08:12:48;22.30;92.80
27848;DHT22;15212;48.830;8.730;2022-08-07T08:15:17;22.40;92.20
27848;DHT22;15212;48.830;8.730;2022-08-07T08:17:46;22.60;92.00
27848;DHT22;15212;48.830;8.730;2022-08-07T08:20:16;22.70;91.60
27848;DHT22;15212;48.830;8.730;2022-08-07T08:22:46;22.80;90.80
27848;DHT22;15212;48.830;8.730;2022-08-07T08:25:34;23.00;90.80
27848;DHT22;15212;48.830;8.730;2022-08-07T08:28:24;22.90;90.30
27848;DHT22;15212;48.830;8.730;2022-08-07T08:30:56;22.80;90.20
27848;DHT22;15212;48.830;8.730;2022-08-07T08:33:29;22.90;90.30
27848;DHT22;15212;48.830;8.730;2022-08-07T08:35:58;22.90;90.70
27848;DHT22;15212;48.830;8.730;2022-08-07T08:38:31;22.90;90.50
27848;DHT22;15212;48.830;8.730;2022-08-07T08:44:32;23.10;86.80
27848;DHT22;15212;48.830;8.730;2022-08-07T08:47:35;23.10;89.60
27848;DHT22;15212;48.830;8.730;2022-08-07T08:50:13;23.20;89.40
27848;DHT22;15212;48.830;8.730;2022-08-07T08:53:05;23.40;87.80
27848;DHT22;15212;48.830;8.730;2022-08-07T08:55:50;23.40;86.00
27848;DHT22;15212;48.830;8.730;2022-08-07T08:58:48;23.70;87.00
27848;DHT22;15212;48.830;8.730;2022-08-07T09:04:15;23.50;84.40
27848;DHT22;15212;48.830;8.730;2022-08-07T09:10:04;23.50;83.80
27848;DHT22;15212;48.830;8.730;2022-08-07T09:12:55;23.60;82.30
27848;DHT22;15212;48.830;8.730;2022-08-07T09:15:42;23.70;81.40
27848;DHT22;15212;48.830;8.730;2022-08-07T09:18:24;23.70;82.40
27848;DHT22;15212;48.830;8.730;2022-08-07T09:24:30;23.60;81.50
27848;DHT22;15212;48.830;8.730;2022-08-07T09:27:28;23.50;83.40
27848;DHT22;15212;48.830;8.730;2022-08-07T09:39:15;23.90;80.40
27848;DHT22;15212;48.830;8.730;2022-08-07T09:41:43;24.00;80.60
27848;DHT22;15212;48.830;8.730;2022-08-07T09:44:40;24.10;81.40
27848;DHT22;15212;48.830;8.730;2022-08-07T09:50:22;24.20;83.30
27848;DHT22;15212;48.830;8.730;2022-08-07T09:52:59;24.00;84.20
27848;DHT22;15212;48.830;8.730;2022-08-07T09:56:00;24.00;84.00
27848;DHT22;15212;48.830;8.730;2022-08-07T09:59:00;24.00;85.30
27848;DHT22;15212;48.830;8.730;2022-08-07T10:01:53;24.20;83.70
27848;DHT22;15212;48.830;8.730;2022-08-07T10:04:39;24.30;83.60
27848;DHT22;15212;48.830;8.730;2022-08-07T10:13:42;24.10;82.90
27848;DHT22;15212;48.830;8.730;2022-08-07T10:19:10;24.20;77.80
27848;DHT22;15212;48.830;8.730;2022-08-07T10:25:11;24.30;74.00
27848;DHT22;15212;48.830;8.730;2022-08-07T10:31:12;24.30;72.40
27848;DHT22;15212;48.830;8.730;2022-08-07T10:34:07;24.20;73.60
27848;DHT22;15212;48.830;8.730;2022-08-07T10:42:39;24.00;74.10
27848;DHT22;15212;48.830;8.730;2022-08-07T10:48:13;24.10;72.90
27848;DHT22;15212;48.830;8.730;2022-08-07T10:50:54;24.10;73.10
27848;DHT22;15212;48.830;8.730;2022-08-07T10:56:58;24.20;71.80
27848;DHT22;15212;48.830;8.730;2022-08-07T11:02:27;24.40;71.80
27848;DHT22;15212;48.830;8.730;2022-08-07T11:08:42;24.40;68.80
27848;DHT22;15212;48.830;8.730;2022-08-07T11:11:31;24.60;71.10
27848;DHT22;15212;48.830;8.730;2022-08-07T11:14:42;24.70;69.50
27848;DHT22;15212;48.830;8.730;2022-08-07T11:17:18;24.70;69.70
27848;DHT22;15212;48.830;8.730;2022-08-07T11:19:57;24.80;68.40
27848;DHT22;15212;48.830;8.730;2022-08-07T11:22:50;24.70;68.60
27848;DHT22;15212;48.830;8.730;2022-08-07T11:25:26;24.70;68.00
27848;DHT22;15212;48.830;8.730;2022-08-07T11:28:33;24.60;69.00
27848;DHT22;15212;48.830;8.730;2022-08-07T11:31:24;24.60;69.80
27848;DHT22;15212;48.830;8.730;2022-08-07T11:34:16;24.40;70.00
27848;DHT22;15212;48.830;8.730;2022-08-07T11:36:53;24.30;70.00
27848;DHT22;15212;48.830;8.730;2022-08-07T11:42:43;24.40;71.40
27848;DHT22;15212;48.830;8.730;2022-08-07T11:55:00;24.80;69.50
27848;DHT22;15212;48.830;8.730;2022-08-07T11:57:42;24.90;69.50
27848;DHT22;15212;48.830;8.730;2022-08-07T12:00:37;25.00;68.80
27848;DHT22;15212;48.830;8.730;2022-08-07T12:09:20;25.00;66.20
27848;DHT22;15212;48.830;8.730;2022-08-07T12:12:17;25.10;66.50
27848;DHT22;15212;48.830;8.730;2022-08-07T12:15:10;25.00;66.70
27848;DHT22;15212;48.830;8.730;2022-08-07T12:17:51;25.10;66.50
27848;DHT22;15212;48.830;8.730;2022-08-07T12:26:27;25.00;67.20
27848;DHT22;15212;48.830;8.730;2022-08-07T12:29:11;25.10;66.70
27848;DHT22;15212;48.830;8.730;2022-08-07T12:34:50;25.30;65.50
27848;DHT22;15212;48.830;8.730;2022-08-07T12:37:21;25.40;64.90
27848;DHT22;15212;48.830;8.730;2022-08-07T12:39:52;25.40;64.80
27848;DHT22;15212;48.830;8.730;2022-08-07T12:42:24;25.40;64.00
27848;DHT22;15212;48.830;8.730;2022-08-07T12:44:55;25.40;65.20
27848;DHT22;15212;48.830;8.730;2022-08-07T12:47:45;25.40;65.30
27848;DHT22;15212;48.830;8.730;2022-08-07T12:50:48;25.40;65.40
27848;DHT22;15212;48.830;8.730;2022-08-07T12:53:36;25.60;65.00
27848;DHT22;15212;48.830;8.730;2022-08-07T12:56:24;25.70;64.30
27848;DHT22;15212;48.830;8.730;2022-08-07T12:58:53;25.70;63.90
27848;DHT22;15212;48.830;8.730;2022-08-07T13:01:34;25.80;64.80
27848;DHT22;15212;48.830;8.730;2022-08-07T13:04:40;25.80;64.40
27848;DHT22;15212;48.830;8.730;2022-08-07T13:10:37;26.00;63.60
27848;DHT22;15212;48.830;8.730;2022-08-07T13:13:35;26.10;62.70
27848;DHT22;15212;48.830;8.730;2022-08-07T13:16:14;26.10;62.40
27848;DHT22;15212;48.830;8.730;2022-08-07T13:19:08;26.10;63.00
27848;DHT22;15212;48.830;8.730;2022-08-07T13:22:00;26.10;62.50
27848;DHT22;15212;48.830;8.730;2022-08-07T13:25:00;26.10;62.00
27848;DHT22;15212;48.830;8.730;2022-08-07T13:27:39;26.20;61.80
27848;DHT22;15212;48.830;8.730;2022-08-07T13:30:13;26.30;61.60
27848;DHT22;15212;48.830;8.730;2022-08-07T13:36:07;26.40;61.60
27848;DHT22;15212;48.830;8.730;2022-08-07T13:38:41;26.50;60.80
27848;DHT22;15212;48.830;8.730;2022-08-07T13:41:32;26.50;61.00
27848;DHT22;15212;48.830;8.730;2022-08-07T13:44:04;26.60;61.90
27848;DHT22;15212;48.830;8.730;2022-08-07T13:46:36;26.60;61.60
27848;DHT22;15212;48.830;8.730;2022-08-07T13:49:07;26.60;61.40
27848;DHT22;15212;48.830;8.730;2022-08-07T13:51:37;26.70;60.60
27848;DHT22;15212;48.830;8.730;2022-08-07T13:54:12;26.70;62.00
27848;DHT22;15212;48.830;8.730;2022-08-07T13:56:42;26.60;59.80
27848;DHT22;15212;48.830;8.730;2022-08-07T13:59:16;26.50;60.80
27848;DHT22;15212;48.830;8.730;2022-08-07T14:02:04;26.50;60.80
27848;DHT22;15212;48.830;8.730;2022-08-07T14:04:49;26.50;61.20
27848;DHT22;15212;48.830;8.730;2022-08-07T14:07:27;26.40;60.40
27848;DHT22;15212;48.830;8.730;2022-08-07T14:09:59;26.40;60.70
27848;DHT22;15212;48.830;8.730;2022-08-07T14:12:35;26.40;60.60
27848;DHT22;15212;48.830;8.730;2022-08-07T14:15:25;26.30;60.60
27848;DHT22;15212;48.830;8.730;2022-08-07T14:18:12;26.40;60.30
27848;DHT22;15212;48.830;8.730;2022-08-07T14:20:36;26.40;59.80
27848;DHT22;15212;48.830;8.730;2022-08-07T14:23:18;26.40;59.90
27848;DHT22;15212;48.830;8.730;2022-08-07T14:26:13;26.50;59.80
27848;DHT22;15212;48.830;8.730;2022-08-07T14:28:39;26.40;59.80
27848;DHT22;15212;48.830;8.730;2022-08-07T14:31:10;26.50;60.60
27848;DHT22;15212;48.830;8.730;2022-08-07T14:33:40;26.50;60.70
27848;DHT22;15212;48.830;8.730;2022-08-07T14:36:10;26.40;60.60
27848;DHT22;15212;48.830;8.730;2022-08-07T14:38:41;26.50;59.70
27848;DHT22;15212;48.830;8.730;2022-08-07T14:41:11;26.50;59.70
27848;DHT22;15212;48.830;8.730;2022-08-07T14:43:44;26.40;59.50
27848;DHT22;15212;48.830;8.730;2022-08-07T14:46:17;26.50;59.30
27848;DHT22;15212;48.830;8.730;2022-08-07T14:48:47;26.50;59.70
27848;DHT22;15212;48.830;8.730;2022-08-07T14:51:21;26.60;59.30
27848;DHT22;15212;48.830;8.730;2022-08-07T14:53:55;26.60;59.60
27848;DHT22;15212;48.830;8.730;2022-08-07T14:56:28;26.60;59.30
27848;DHT22;15212;48.830;8.730;2022-08-07T14:59:02;26.60;59.80
27848;DHT22;15212;48.830;8.730;2022-08-07T15:01:35;26.70;59.90
27848;DHT22;15212;48.830;8.730;2022-08-07T15:04:06;26.70;59.40
27848;DHT22;15212;48.830;8.730;2022-08-07T15:06:37;26.80;59.40
27848;DHT22;15212;48.830;8.730;2022-08-07T15:09:11;26.90;59.40
27848;DHT22;15212;48.830;8.730;2022-08-07T15:11:57;26.80;58.80
27848;DHT22;15212;48.830;8.730;2022-08-07T15:14:29;26.60;59.20
27848;DHT22;15212;48.830;8.730;2022-08-07T15:17:03;26.60;59.40
27848;DHT22;15212;48.830;8.730;2022-08-07T15:20:04;26.60;59.20
27848;DHT22;15212;48.830;8.730;2022-08-07T15:22:28;26.50;58.70
27848;DHT22;15212;48.830;8.730;2022-08-07T15:24:59;26.60;58.90
27848;DHT22;15212;48.830;8.730;2022-08-07T15:27:30;26.60;59.10
27848;DHT22;15212;48.830;8.730;2022-08-07T15:30:07;26.60;59.40
27848;DHT22;15212;48.830;8.730;2022-08-07T15:32:33;26.70;58.90
27848;DHT22;15212;48.830;8.730;2022-08-07T15:35:15;26.70;58.80
27848;DHT22;15212;48.830;8.730;2022-08-07T15:37:51;26.70;58.50
27848;DHT22;15212;48.830;8.730;2022-08-07T15:40:24;26.70;58.60
27848;DHT22;15212;48.830;8.730;2022-08-07T15:42:58;26.70;58.70
27848;DHT22;15212;48.830;8.730;2022-08-07T15:45:45;26.60;59.00
27848;DHT22;15212;48.830;8.730;2022-08-07T15:48:17;26.60;58.90
27848;DHT22;15212;48.830;8.730;2022-08-07T15:50:57;26.60;58.90
27848;DHT22;15212;48.830;8.730;2022-08-07T15:53:42;26.60;58.70
27848;DHT22;15212;48.830;8.730;2022-08-07T15:56:17;26.40;58.90
27848;DHT22;15212;48.830;8.730;2022-08-07T15:58:53;26.30;59.60
27848;DHT22;15212;48.830;8.730;2022-08-07T16:01:27;26.40;58.50
27848;DHT22;15212;48.830;8.730;2022-08-07T16:04:02;26.30;58.70
27848;DHT22;15212;48.830;8.730;2022-08-07T16:06:35;26.10;58.70
27848;DHT22;15212;48.830;8.730;2022-08-07T16:09:11;26.10;59.30
27848;DHT22;15212;48.830;8.730;2022-08-07T16:15:12;26.10;59.20
27848;DHT22;15212;48.830;8.730;2022-08-07T16:18:04;26.10;59.10
27848;DHT22;15212;48.830;8.730;2022-08-07T16:23:47;26.10;59.30
27848;DHT22;15212;48.830;8.730;2022-08-07T16:26:57;26.10;59.40
27848;DHT22;15212;48.830;8.730;2022-08-07T16:29:29;26.10;59.00
27848;DHT22;15212;48.830;8.730;2022-08-07T16:32:07;26.10;58.80
27848;DHT22;15212;48.830;8.730;2022-08-07T16:34:48;26.00;58.80
27848;DHT22;15212;48.830;8.730;2022-08-07T16:49:57;25.60;59.70
27848;DHT22;15212;48.830;8.730;2022-08-07T16:52:38;25.60;59.50
27848;DHT22;15212;48.830;8.730;2022-08-07T16:55:39;25.60;59.90
27848;DHT22;15212;48.830;8.730;2022-08-07T16:58:21;25.60;59.40
27848;DHT22;15212;48.830;8.730;2022-08-07T17:04:01;25.30;59.20
27848;DHT22;15212;48.830;8.730;2022-08-07T17:12:33;25.20;60.20
27848;DHT22;15212;48.830;8.730;2022-08-07T17:15:27;25.20;59.70
27848;DHT22;15212;48.830;8.730;2022-08-07T17:18:06;25.10;59.40
27848;DHT22;15212;48.830;8.730;2022-08-07T17:20:51;25.10;59.20
27848;DHT22;15212;48.830;8.730;2022-08-07T17:26:26;25.10;59.70
27848;DHT22;15212;48.830;8.730;2022-08-07T17:31:57;24.90;59.50
27848;DHT22;15212;48.830;8.730;2022-08-07T17:34:33;24.90;59.50
27848;DHT22;15212;48.830;8.730;2022-08-07T17:37:08;24.90;59.40
27848;DHT22;15212;48.830;8.730;2022-08-07T17:39:56;24.90;59.50
27848;DHT22;15212;48.830;8.730;2022-08-07T17:42:52;24.90;59.60
27848;DHT22;15212;48.830;8.730;2022-08-07T17:45:34;24.80;60.00
27848;DHT22;15212;48.830;8.730;2022-08-07T17:48:14;24.80;59.60
27848;DHT22;15212;48.830;8.730;2022-08-07T17:57:19;24.70;60.20
27848;DHT22;15212;48.830;8.730;2022-08-07T18:00:15;24.70;60.10
27848;DHT22;15212;48.830;8.730;2022-08-07T18:02:12;24.70;60.00
27848;DHT22;15212;48.830;8.730;2022-08-07T18:04:50;24.60;60.80
27848;DHT22;15212;48.830;8.730;2022-08-07T18:07:27;24.50;61.50
27848;DHT22;15212;48.830;8.730;2022-08-07T18:10:36;24.40;62.00
27848;DHT22;15212;48.830;8.730;2022-08-07T18:16:11;24.20;62.10
27848;DHT22;15212;48.830;8.730;2022-08-07T18:18:51;24.10;62.50
27848;DHT22;15212;48.830;8.730;2022-08-07T18:21:32;24.00;62.70
27848;DHT22;15212;48.830;8.730;2022-08-07T18:24:19;24.00;62.50
27848;DHT22;15212;48.830;8.730;2022-08-07T18:27:27;24.00;62.80
27848;DHT22;15212;48.830;8.730;2022-08-07T18:30:06;23.90;63.40
27848;DHT22;15212;48.830;8.730;2022-08-07T18:47:36;23.40;64.10
27848;DHT22;15212;48.830;8.730;2022-08-07T18:54:02;23.10;64.90
27848;DHT22;15212;48.830;8.730;2022-08-07T18:56:51;23.00;65.20
27848;DHT22;15212;48.830;8.730;2022-08-07T19:05:29;22.60;66.00
27848;DHT22;15212;48.830;8.730;2022-08-07T19:08:33;22.50;66.50
27848;DHT22;15212;48.830;8.730;2022-08-07T19:11:07;22.40;66.10